Pagrindinis puslapis
METAR-TAF:

METAR-TAF

Oro uostai :

Dzaoudzi, Majotas

platuma: 12-48S, ilguma: 045-17E, Aukštis: 8 m

Dabartinis oras

Ataskaita buvo paskelbta 36 minutes, ne 12:00 UTC
Vėjas 13 kt iš Šiaurės, svyruoja nuo Šiaurės Vakarų ir Šiaurės/Šiaurės Rytų
Temperatūra 31°C
Drėgmė 71%
Slėgis 1008 hPa
Matomumas 10 km arba daugiau
Išsisklaidę debesys ne aukštis 2200 ft
Išsisklaidę debesys ne aukštis 3800 ft

METAR: FMCZ 151200Z AUTO 01013KT 320V030 9999 SCT022 SCT038 31/25 Q1008 NOSIG

Laikas: 15:36 (12:36 UTC)

Prognozė

Ataskaita buvo paskelbta 1 valandą ir 36 minutes, ne 11:00 UTC
Prognozė galioja nuo 15 metu 12 UTC su 16 metu 12 UTC
Vėjas 12 kt iš Šiaurės/Šiaurės Rytų
Matomumas 10 km arba daugiau
Išsisklaidę debesys ne aukštis 2300 ft

TAF: FMCZ 151100Z 1512/1612 02012KT 9999 SCT023

Orai ataskaitas ir orų prognozės (METAR, TAF).

turimą stotys yra geltonos ir raudonos taškus žemėlapyje.

Perkelti pele per norėdami pamatyti stoties vardą.

Tada spustelėkite, norėdami matyti oro stebėjimo ir prognozės.

Norėdami pakeisti žemėlapį: spustelėkite ant žalios mygtukų su juodo kryžiaus žemyn,; žalią mygtuką su brūkšneliu, jei norite nutolinti; arba žalių rodyklių gretimoms žemėlapius.


METAR-TAF: